Time;durP1;ratioP1;P1;durP2;ratioP2;P2;SDS_P1;SDS_P2;PMS_P1;PMS_P2;Temp;Humidity;BMP_temperature;BMP_pressure;BME280_temperature;BME280_humidity;BME280_pressure;Samples;Min_cycle;Max_cycle;Signal;HPM_P1;HPM_P2
2023/12/01 04:59:46;;;;;;;19.30;9.27;;;;;;;-0.03;100.00;98967.69;5693260;27;20468;-83
2023/12/01 05:02:54;;;;;;;21.02;10.18;;;;;;;0.02;100.00;98983.09;5318169;33;34345;-84
2023/12/01 05:05:58;;;;;;;19.77;9.25;;;;;;;-0.04;100.00;98963.34;5343025;33;34592;-84
2023/12/01 05:09:01;;;;;;;22.17;10.48;;;;;;;-0.01;100.00;98963.06;5330306;33;34037;-84
2023/12/01 05:12:05;;;;;;;27.23;11.05;;;;;;;0.01;100.00;98951.50;5343666;33;34004;-83
2023/12/01 05:15:15;;;;;;;21.10;11.95;;;;;;;0.07;100.00;98957.03;5319225;33;33929;-83
2023/12/01 05:18:18;;;;;;;25.67;13.88;;;;;;;0.06;100.00;98950.09;5320339;33;33868;-83
2023/12/01 05:21:21;;;;;;;30.33;15.35;;;;;;;0.13;100.00;98953.00;5331431;33;34849;-82
2023/12/01 05:24:24;;;;;;;29.70;16.90;;;;;;;0.11;100.00;98947.00;5331740;33;35222;-83
2023/12/01 05:27:29;;;;;;;29.08;14.35;;;;;;;0.14;100.00;98949.34;5327979;33;33910;-83
2023/12/01 05:30:34;;;;;;;27.77;15.18;;;;;;;0.14;100.00;98963.41;5331514;33;34319;-82
2023/12/01 05:33:38;;;;;;;24.55;12.48;;;;;;;0.23;100.00;98959.06;5343458;33;33777;-83
2023/12/01 05:36:41;;;;;;;25.50;11.93;;;;;;;0.34;100.00;98987.97;5343032;33;33629;-83
2023/12/01 05:39:44;;;;;;;22.17;9.75;;;;;;;0.38;100.00;98983.22;5342999;33;33943;-83
2023/12/01 05:42:49;;;;;;;22.80;10.23;;;;;;;0.43;100.00;98979.16;5336286;33;34443;-83
2023/12/01 05:45:53;;;;;;;23.10;9.98;;;;;;;0.51;100.00;98967.81;5329294;33;34171;-85
2023/12/01 05:48:57;;;;;;;22.90;9.43;;;;;;;0.41;100.00;98965.25;5355063;33;34895;-84
2023/12/01 05:52:00;;;;;;;19.80;8.65;;;;;;;0.45;100.00;98969.25;5330681;33;34274;-84
2023/12/01 05:55:10;;;;;;;16.95;8.80;;;;;;;0.43;100.00;98963.25;5325082;33;34121;-84
2023/12/01 05:58:14;;;;;;;12.98;6.72;;;;;;;0.37;100.00;98977.09;5329978;33;34068;-84
2023/12/01 06:01:17;;;;;;;17.73;8.25;;;;;;;0.42;100.00;98963.44;5332177;33;33820;-84
2023/12/01 06:04:20;;;;;;;19.70;8.25;;;;;;;0.54;100.00;98956.94;5347302;33;33561;-84
2023/12/01 06:07:23;;;;;;;16.48;7.78;;;;;;;0.42;100.00;98976.66;5348491;33;33820;-84
2023/12/01 06:10:28;;;;;;;17.90;7.47;;;;;;;0.47;100.00;98977.06;5361711;33;33865;-84
2023/12/01 06:13:31;;;;;;;17.45;8.45;;;;;;;0.59;100.00;98975.88;5365318;33;33658;-84
2023/12/01 06:16:34;;;;;;;17.85;8.00;;;;;;;0.67;100.00;98983.91;5349262;33;36089;-84
2023/12/01 06:19:37;;;;;;;18.30;8.40;;;;;;;0.58;100.00;98976.84;5338643;33;35136;-84
2023/12/01 06:22:41;;;;;;;16.05;7.60;;;;;;;0.56;100.00;98996.53;5348644;33;33815;-84
2023/12/01 06:25:46;;;;;;;17.35;7.85;;;;;;;0.52;100.00;99006.56;5341609;33;33861;-83
2023/12/01 06:28:50;;;;;;;20.98;8.20;;;;;;;0.58;100.00;98998.00;5330735;33;33755;-88
2023/12/01 06:31:52;;;;;;;18.48;8.30;;;;;;;0.55;100.00;98992.19;5338194;33;34915;-88
2023/12/01 06:34:56;;;;;;;15.68;7.60;;;;;;;0.65;100.00;98999.09;5347816;33;34892;-88
2023/12/01 06:37:59;;;;;;;21.08;8.57;;;;;;;0.55;100.00;98995.66;5348408;33;33892;-88
2023/12/01 06:41:02;;;;;;;18.48;7.65;;;;;;;0.52;100.00;98980.06;5348240;33;34510;-84
2023/12/01 06:44:05;;;;;;;14.85;8.02;;;;;;;0.57;100.00;98988.41;5348312;33;34291;-84
2023/12/01 06:47:09;;;;;;;14.68;8.40;;;;;;;0.55;100.00;99000.13;5348596;33;34576;-84
2023/12/01 06:50:14;;;;;;;18.75;8.50;;;;;;;0.65;100.00;99001.75;5337867;33;34329;-84
2023/12/01 06:53:17;;;;;;;16.75;8.43;;;;;;;0.67;100.00;99006.88;5363935;33;33448;-84
2023/12/01 06:56:20;;;;;;;19.15;8.73;;;;;;;0.60;100.00;99008.47;5350334;33;35265;-84
2023/12/01 06:59:23;;;;;;;17.00;9.07;;;;;;;0.61;100.00;98999.53;5361835;33;33739;-84
2023/12/01 07:02:26;;;;;;;19.02;9.35;;;;;;;0.60;100.00;99005.84;5333141;33;35308;-84
2023/12/01 07:05:31;;;;;;;14.93;7.65;;;;;;;0.67;100.00;99009.53;5327660;33;33815;-83
2023/12/01 07:08:34;;;;;;;17.35;9.40;;;;;;;0.64;100.00;99023.06;5361795;33;33731;-83
2023/12/01 07:11:37;;;;;;;17.75;8.30;;;;;;;0.53;100.00;99008.25;5361348;33;33523;-84
2023/12/01 07:14:40;;;;;;;14.87;7.80;;;;;;;0.55;100.00;99016.84;5348387;33;34037;-83
2023/12/01 07:17:43;;;;;;;12.10;6.97;;;;;;;0.61;100.00;99021.56;5337585;33;33592;-83
2023/12/01 07:20:46;;;;;;;19.87;7.53;;;;;;;0.49;100.00;99033.34;5338349;33;33636;-84
2023/12/01 07:23:49;;;;;;;17.42;8.07;;;;;;;0.55;100.00;99029.25;5349818;33;34078;-83
2023/12/01 07:26:52;;;;;;;17.60;8.18;;;;;;;0.48;100.00;99039.63;5347754;33;33387;-85
2023/12/01 07:29:55;;;;;;;20.30;8.70;;;;;;;0.56;100.00;99049.50;5348038;33;33864;-84
2023/12/01 07:33:00;;;;;;;17.15;8.43;;;;;;;0.57;100.00;99053.78;5340390;33;33735;-84
2023/12/01 07:36:04;;;;;;;16.02;8.15;;;;;;;0.59;100.00;99044.72;5350272;33;34737;-84
2023/12/01 07:39:13;;;;;;;;;;;;;;;0.60;100.00;98997.88;5343880;33;34760;-84
2023/12/01 07:42:17;;;;;;;14.85;7.87;;;;;;;0.49;100.00;99008.66;5346582;33;34185;-84
2023/12/01 07:45:21;;;;;;;14.05;7.82;;;;;;;0.49;100.00;99009.50;5346444;33;35419;-84
2023/12/01 07:48:25;;;;;;;13.65;7.30;;;;;;;0.51;100.00;99020.78;5358406;33;33399;-84
2023/12/01 07:51:28;;;;;;;16.50;8.23;;;;;;;0.59;100.00;99028.00;5319348;33;34620;-84
2023/12/01 07:54:31;;;;;;;14.73;7.35;;;;;;;0.69;100.00;99026.13;5331424;33;35320;-84
2023/12/01 07:57:33;;;;;;;16.23;7.25;;;;;;;0.64;100.00;99017.78;5345116;33;33577;-83
2023/12/01 08:00:40;;;;;;;16.62;8.20;;;;;;;0.67;100.00;99038.66;5350434;33;33977;-84
2023/12/01 08:03:47;;;;;;;15.63;7.05;;;;;;;0.66;100.00;99053.72;5369747;33;33702;-84
2023/12/01 08:06:50;;;;;;;16.10;7.70;;;;;;;0.67;100.00;99054.56;5362148;33;33957;-84
2023/12/01 08:09:53;;;;;;;14.38;7.28;;;;;;;0.62;100.00;99036.47;5335217;33;34573;-84
2023/12/01 08:12:58;;;;;;;16.45;7.47;;;;;;;0.53;100.00;99049.78;5321391;33;34005;-84
2023/12/01 08:16:04;;;;;;;17.75;8.45;;;;;;;0.65;100.00;99038.84;5341732;33;34592;-84
2023/12/01 08:19:09;;;;;;;17.00;7.82;;;;;;;0.65;100.00;99085.69;5336986;33;34322;-84
2023/12/01 08:22:12;;;;;;;16.37;7.95;;;;;;;0.61;100.00;99076.34;5332393;33;33520;-84
2023/12/01 08:25:17;;;;;;;13.35;8.45;;;;;;;0.72;100.00;99075.31;5317783;33;33457;-84
2023/12/01 08:28:20;;;;;;;13.93;7.80;;;;;;;0.64;100.00;99066.31;5342036;33;33995;-84
2023/12/01 08:31:24;;;;;;;18.75;8.38;;;;;;;0.73;100.00;99055.78;5317607;33;33544;-88
2023/12/01 08:34:28;;;;;;;17.50;9.13;;;;;;;0.63;100.00;99035.50;5329329;33;33479;-88
2023/12/01 08:37:31;;;;;;;16.37;9.10;;;;;;;0.61;100.00;99058.63;5329420;33;34099;-88
2023/12/01 08:40:34;;;;;;;16.87;8.80;;;;;;;0.65;100.00;99072.44;5317516;33;33764;-85
2023/12/01 08:43:45;;;;;;;16.17;8.48;;;;;;;0.59;100.00;99055.31;5330187;33;33698;-84
2023/12/01 08:46:48;;;;;;;18.52;8.82;;;;;;;0.62;100.00;99059.50;5329569;33;33473;-84
2023/12/01 08:49:54;;;;;;;13.98;8.55;;;;;;;0.72;100.00;99060.25;5326766;33;34033;-84
2023/12/01 08:52:57;;;;;;;17.92;9.75;;;;;;;0.76;100.00;99060.78;5347205;33;33742;-84
2023/12/01 08:56:01;;;;;;;15.85;8.95;;;;;;;0.75;100.00;99052.00;5331089;33;33601;-84
2023/12/01 08:59:04;;;;;;;18.77;8.82;;;;;;;0.85;100.00;99051.97;5329270;33;33550;-84
2023/12/01 09:02:07;;;;;;;19.10;9.27;;;;;;;0.87;100.00;99056.13;5329033;33;34732;-84
2023/12/01 09:05:16;;;;;;;20.55;9.68;;;;;;;0.84;100.00;99061.72;5329652;33;33971;-83
2023/12/01 09:08:19;;;;;;;14.85;8.10;;;;;;;0.89;100.00;99058.63;5328852;33;34562;-84
2023/12/01 09:11:22;;;;;;;19.48;9.13;;;;;;;0.94;100.00;99063.47;5329415;33;34932;-84
2023/12/01 09:14:25;;;;;;;18.15;9.00;;;;;;;0.96;100.00;99072.94;5336338;33;34739;-85
2023/12/01 09:17:28;;;;;;;20.55;9.45;;;;;;;1.03;100.00;99068.75;5347205;33;34531;-85
2023/12/01 09:20:31;;;;;;;15.77;7.75;;;;;;;1.08;100.00;99078.87;5341608;33;33739;-85
2023/12/01 09:23:39;;;;;;;17.15;7.47;;;;;;;1.02;100.00;99074.19;5346357;33;33916;-84
2023/12/01 09:26:44;;;;;;;19.33;9.00;;;;;;;1.07;100.00;99058.66;5363507;33;33997;-85
2023/12/01 09:29:49;;;;;;;17.08;7.80;;;;;;;1.08;100.00;99070.94;5358955;33;34217;-84
2023/12/01 09:32:52;;;;;;;12.45;6.60;;;;;;;1.08;100.00;99060.31;5346577;33;33881;-84
2023/12/01 09:35:56;;;;;;;15.98;6.95;;;;;;;1.07;100.00;99062.16;5329298;33;33382;-86
2023/12/01 09:39:02;;;;;;;14.10;7.62;;;;;;;1.11;100.00;99065.31;5318880;33;33790;-86
2023/12/01 09:42:06;;;;;;;16.23;8.52;;;;;;;1.06;100.00;99068.44;5345589;33;33462;-84
2023/12/01 09:45:13;;;;;;;17.50;7.82;;;;;;;1.05;100.00;99056.19;5353277;33;34728;-85
2023/12/01 09:48:20;;;;;;;18.45;8.52;;;;;;;1.05;100.00;99065.91;5344755;33;34798;-84
2023/12/01 09:51:23;;;;;;;16.95;8.25;;;;;;;0.95;100.00;99050.09;5339652;33;34065;-85
2023/12/01 09:54:26;;;;;;;14.18;7.80;;;;;;;1.00;100.00;99047.84;5317934;33;33896;-85
2023/12/01 09:57:29;;;;;;;18.87;8.15;;;;;;;1.05;100.00;99024.38;5320605;33;33457;-85
2023/12/01 10:00:33;;;;;;;16.12;8.15;;;;;;;1.04;100.00;99017.41;5360431;33;33447;-84
2023/12/01 10:03:37;;;;;;;14.98;7.62;;;;;;;1.07;100.00;99010.97;5340857;33;33434;-84
2023/12/01 10:06:40;;;;;;;13.40;7.10;;;;;;;1.05;100.00;99002.31;5348928;33;34007;-84
2023/12/01 10:09:44;;;;;;;15.50;7.68;;;;;;;0.97;100.00;99016.34;5329915;33;35040;-85
2023/12/01 10:12:58;;;;;;;16.20;7.97;;;;;;;0.96;100.00;99017.31;5341728;33;33944;-85
2023/12/01 10:16:01;;;;;;;16.75;7.70;;;;;;;1.07;100.00;98997.72;5346494;33;34244;-89
2023/12/01 10:19:05;;;;;;;20.12;8.20;;;;;;;1.08;100.00;99016.13;5354660;33;33899;-88
2023/12/01 10:22:11;;;;;;;19.37;8.32;;;;;;;1.19;100.00;99017.69;5339267;33;34613;-89
2023/12/01 10:25:14;;;;;;;16.73;9.43;;;;;;;1.23;100.00;98997.88;5336527;33;33931;-85
2023/12/01 10:28:22;;;;;;;16.17;7.70;;;;;;;1.27;100.00;99003.69;5337692;33;33785;-85
2023/12/01 10:31:25;;;;;;;13.93;7.72;;;;;;;1.35;100.00;99007.25;5334377;33;33762;-85
2023/12/01 10:34:29;;;;;;;10.50;6.50;;;;;;;1.42;100.00;98986.25;5343210;33;33464;-85
2023/12/01 10:37:32;;;;;;;13.65;6.68;;;;;;;1.44;100.00;98997.56;5340549;33;34864;-85
2023/12/01 10:40:35;;;;;;;11.57;6.03;;;;;;;1.54;100.00;98992.16;5348566;33;34270;-85
2023/12/01 10:43:43;;;;;;;10.88;6.60;;;;;;;1.56;100.00;98980.41;5363012;33;34172;-85
2023/12/01 10:46:47;;;;;;;12.37;6.50;;;;;;;1.50;100.00;98988.97;5354299;33;34868;-84
2023/12/01 10:49:51;;;;;;;13.57;6.82;;;;;;;1.48;100.00;98982.16;5332313;33;33998;-84
2023/12/01 10:52:55;;;;;;;12.35;6.07;;;;;;;1.48;100.00;98979.50;5351545;33;33761;-85
2023/12/01 10:56:03;;;;;;;15.60;7.18;;;;;;;1.47;100.00;98983.16;5358633;33;34513;-85
2023/12/01 10:59:10;;;;;;;11.43;6.57;;;;;;;1.45;100.00;98979.81;5351839;33;33844;-84
2023/12/01 11:02:14;;;;;;;10.25;5.95;;;;;;;1.50;100.00;98973.06;5349381;33;33798;-85
2023/12/01 11:05:18;;;;;;;15.85;8.00;;;;;;;1.52;100.00;98976.41;5325511;33;33474;-85
2023/12/01 11:08:41;;;;;;;13.40;7.32;;;;;;;1.55;100.00;98975.22;5322309;33;33760;-85
2023/12/01 11:12:08;;;;;;;14.07;7.35;;;;;;;1.51;100.00;98964.09;5354732;33;33912;-85
2023/12/01 11:15:16;;;;;;;14.23;7.10;;;;;;;1.53;100.00;98956.00;5352205;33;34615;-85
2023/12/01 11:18:20;;;;;;;12.15;7.03;;;;;;;1.45;100.00;98943.50;5353492;33;35092;-85
2023/12/01 11:21:24;;;;;;;13.45;7.28;;;;;;;1.45;100.00;98951.47;5344721;33;33920;-85
2023/12/01 11:24:32;;;;;;;15.48;8.07;;;;;;;1.44;100.00;98946.34;5358261;33;33490;-85
2023/12/01 11:27:35;;;;;;;10.93;6.65;;;;;;;1.43;100.00;98949.97;5345665;33;34126;-85
2023/12/01 11:31:28;;;;;;;10.93;6.55;;;;;;;1.50;100.00;98957.16;5328345;33;33892;-85
2023/12/01 11:34:31;;;;;;;17.00;6.53;;;;;;;1.47;100.00;98943.38;5273514;33;33904;-85
2023/12/01 11:37:56;;;;;;;12.32;6.93;;;;;;;1.44;100.00;98951.63;5287638;33;34019;-85
2023/12/01 11:40:59;;;;;;;11.82;5.82;;;;;;;1.40;100.00;98960.88;5348917;33;33453;-86
2023/12/01 11:44:04;;;;;;;11.12;6.70;;;;;;;1.28;100.00;98954.97;5344978;33;33880;-85
2023/12/01 11:47:12;;;;;;;10.77;5.97;;;;;;;1.26;100.00;98956.97;5347671;33;33581;-85
2023/12/01 11:50:16;;;;;;;12.75;6.15;;;;;;;1.16;100.00;98965.00;5347389;33;34635;-85
2023/12/01 11:53:19;;;;;;;11.00;6.20;;;;;;;1.28;100.00;98957.63;5348739;33;33801;-85
2023/12/01 11:56:25;;;;;;;9.88;5.62;;;;;;;1.20;100.00;98962.88;5354479;33;33874;-85
2023/12/01 11:59:28;;;;;;;9.20;5.43;;;;;;;1.24;100.00;98943.84;5358299;33;35272;-85
2023/12/01 12:02:31;;;;;;;10.63;6.95;;;;;;;1.41;100.00;98954.59;5347345;33;34013;-86
2023/12/01 12:05:35;;;;;;;9.93;6.00;;;;;;;1.38;100.00;98945.12;5337293;33;33556;-85
2023/12/01 12:08:38;;;;;;;9.00;5.82;;;;;;;1.38;100.00;98939.00;5336356;33;33934;-85
2023/12/01 12:11:41;;;;;;;10.88;6.65;;;;;;;1.35;100.00;98945.44;5347873;33;33787;-84
2023/12/01 12:14:46;;;;;;;9.45;6.10;;;;;;;1.38;100.00;98939.81;5349681;33;33768;-84
2023/12/01 12:17:50;;;;;;;15.45;6.78;;;;;;;1.36;100.00;98942.63;5319488;33;34487;-87
2023/12/01 12:20:54;;;;;;;14.30;7.07;;;;;;;1.35;100.00;98942.78;5324573;33;34481;-84
2023/12/01 12:23:57;;;;;;;12.70;6.75;;;;;;;1.27;100.00;98945.38;5344475;33;33482;-84
2023/12/01 12:27:00;;;;;;;10.35;6.22;;;;;;;1.21;100.00;98928.25;5344377;33;33905;-84
2023/12/01 12:30:04;;;;;;;13.15;6.60;;;;;;;1.19;100.00;98924.09;5348625;33;33925;-84
2023/12/01 12:33:09;;;;;;;9.10;5.68;;;;;;;1.24;100.00;98922.66;5339291;33;35085;-84
2023/12/01 12:36:14;;;;;;;11.77;7.00;;;;;;;1.42;100.00;98916.47;5342446;33;33897;-85
2023/12/01 12:39:17;;;;;;;11.63;6.03;;;;;;;1.42;100.00;98921.78;5339935;33;34625;-85
2023/12/01 12:42:21;;;;;;;10.32;5.93;;;;;;;1.37;100.00;98932.84;5362715;33;34978;-85
2023/12/01 12:45:24;;;;;;;11.95;6.30;;;;;;;1.39;100.00;98919.44;5337435;33;33440;-85
2023/12/01 12:48:31;;;;;;;10.32;6.05;;;;;;;1.34;100.00;98917.25;5338511;33;33632;-89
2023/12/01 12:51:36;;;;;;;8.70;5.12;;;;;;;1.33;100.00;98920.91;5336467;33;33777;-91
2023/12/01 12:54:42;;;;;;;11.57;5.78;;;;;;;1.30;100.00;98919.37;5350418;33;33936;-87
2023/12/01 12:57:45;;;;;;;8.60;5.30;;;;;;;1.27;100.00;98908.25;5360057;33;33830;-86
2023/12/01 13:00:50;;;;;;;7.12;5.12;;;;;;;1.30;100.00;98927.34;5346094;33;33861;-86
2023/12/01 13:03:55;;;;;;;8.48;5.35;;;;;;;1.32;100.00;98921.91;5343302;33;33789;-86
2023/12/01 13:06:58;;;;;;;7.80;5.40;;;;;;;1.37;100.00;98901.03;5343011;33;33819;-86
2023/12/01 13:10:01;;;;;;;8.23;5.60;;;;;;;1.34;100.00;98911.94;5358095;33;33405;-86
2023/12/01 13:13:04;;;;;;;10.27;5.72;;;;;;;1.35;100.00;98900.38;5346488;33;33901;-86
2023/12/01 13:16:08;;;;;;;8.48;5.12;;;;;;;1.25;100.00;98916.34;5328754;33;35268;-86
2023/12/01 13:19:12;;;;;;;11.73;5.93;;;;;;;1.44;100.00;98904.72;5358974;33;34149;-86
2023/12/01 13:22:15;;;;;;;8.50;5.40;;;;;;;1.36;100.00;98904.69;5350368;33;35281;-87
2023/12/01 13:25:18;;;;;;;8.45;5.25;;;;;;;1.42;100.00;98903.22;5344044;33;35274;-86
2023/12/01 13:28:21;;;;;;;9.88;5.72;;;;;;;1.34;100.00;98893.38;5327200;33;34269;-87
2023/12/01 13:31:25;;;;;;;8.43;5.55;;;;;;;1.30;100.00;98895.53;5361355;33;33497;-86
2023/12/01 13:34:28;;;;;;;10.85;5.87;;;;;;;1.29;100.00;98901.00;5338885;33;34630;-87
2023/12/01 13:37:31;;;;;;;6.82;5.15;;;;;;;1.25;100.00;98913.69;5361985;33;33425;-87
2023/12/01 13:40:34;;;;;;;10.05;6.03;;;;;;;1.23;100.00;98913.03;5333236;33;33553;-86
2023/12/01 13:43:40;;;;;;;8.63;5.15;;;;;;;1.22;100.00;98929.91;5361591;33;33802;-86
2023/12/01 13:46:43;;;;;;;8.43;5.75;;;;;;;1.19;100.00;98922.28;5347793;33;33879;-86
2023/12/01 13:49:46;;;;;;;8.90;5.37;;;;;;;1.20;100.00;98907.19;5349710;33;34572;-86
2023/12/01 13:52:49;;;;;;;10.00;5.15;;;;;;;1.18;100.00;98919.78;5335398;33;33989;-87
2023/12/01 13:55:52;;;;;;;9.93;5.57;;;;;;;1.26;100.00;98926.00;5338855;33;33736;-87
2023/12/01 13:59:07;;;;;;;7.55;4.80;;;;;;;1.30;100.00;98929.97;5349345;33;34207;-87
2023/12/01 14:02:11;;;;;;;6.93;4.80;;;;;;;1.29;100.00;98935.47;5335553;33;33433;-87
2023/12/01 14:05:17;;;;;;;8.43;4.80;;;;;;;1.27;100.00;98935.59;5347089;33;33471;-87
2023/12/01 14:08:22;;;;;;;7.12;4.07;;;;;;;1.19;100.00;98948.78;5346223;33;33401;-87
2023/12/01 14:11:27;;;;;;;7.07;4.45;;;;;;;1.21;100.00;98953.94;5347011;33;33893;-86
2023/12/01 14:14:30;;;;;;;7.87;4.40;;;;;;;1.21;100.00;98954.78;5321439;33;35474;-86
2023/12/01 14:17:35;;;;;;;5.55;4.00;;;;;;;1.22;100.00;98958.25;5349106;33;34033;-87
2023/12/01 14:20:38;;;;;;;6.97;4.53;;;;;;;1.19;100.00;98947.94;5336533;33;33867;-87
2023/12/01 14:23:42;;;;;;;6.82;4.57;;;;;;;1.17;100.00;98952.56;5338427;33;33489;-87
2023/12/01 14:26:47;;;;;;;6.85;4.72;;;;;;;1.12;100.00;98953.88;5321325;33;33968;-87
2023/12/01 14:29:50;;;;;;;8.40;4.78;;;;;;;1.10;100.00;98949.69;5357360;33;33766;-86
2023/12/01 14:32:55;;;;;;;5.30;3.97;;;;;;;1.13;100.00;98939.63;5342484;33;34736;-85
2023/12/01 14:35:58;;;;;;;8.82;4.60;;;;;;;1.14;100.00;98961.66;5322826;33;34005;-86
2023/12/01 14:39:01;;;;;;;9.05;4.97;;;;;;;1.12;100.00;98955.69;5344083;33;33519;-88
2023/12/01 14:42:04;;;;;;;7.78;4.90;;;;;;;1.19;100.00;98959.38;5333994;33;34047;-90
2023/12/01 14:45:09;;;;;;;5.03;3.92;;;;;;;1.15;100.00;98941.31;5362100;33;34234;-91
2023/12/01 14:48:13;;;;;;;5.07;3.97;;;;;;;1.23;100.00;98933.41;5341917;33;34600;-90
2023/12/01 14:51:17;;;;;;;7.03;4.40;;;;;;;1.17;100.00;98952.56;5344841;33;34299;-86
2023/12/01 14:54:20;;;;;;;5.87;4.35;;;;;;;1.26;100.00;98970.22;5319960;33;34419;-87
2023/12/01 14:57:23;;;;;;;6.90;4.47;;;;;;;1.24;100.00;98962.41;5337888;33;35117;-87
2023/12/01 15:00:26;;;;;;;5.90;4.25;;;;;;;1.29;100.00;98959.31;5318470;33;33751;-86
2023/12/01 15:03:29;;;;;;;7.55;4.28;;;;;;;1.24;100.00;98953.62;5342307;33;32551;-86
2023/12/01 15:06:33;;;;;;;5.97;4.15;;;;;;;1.26;100.00;98952.50;5330625;33;34289;-86
2023/12/01 15:09:38;;;;;;;6.62;4.03;;;;;;;1.26;100.00;98952.50;5323435;33;34278;-86
2023/12/01 15:12:41;;;;;;;8.05;4.43;;;;;;;1.27;100.00;98934.78;5330059;33;34243;-86
2023/12/01 15:15:45;;;;;;;6.35;4.30;;;;;;;1.19;100.00;98962.03;5318620;33;34598;-87
2023/12/01 15:18:49;;;;;;;5.90;4.45;;;;;;;1.20;100.00;98944.31;5308826;33;148023;-86
2023/12/01 15:21:52;;;;;;;7.05;4.37;;;;;;;1.19;100.00;98967.34;5318349;33;34534;-87
2023/12/01 15:24:55;;;;;;;9.98;4.60;;;;;;;1.26;100.00;98956.97;5318832;33;33782;-87
2023/12/01 15:27:58;;;;;;;6.05;4.25;;;;;;;1.23;100.00;98962.56;5319127;33;33730;-86
2023/12/01 15:31:01;;;;;;;6.68;4.78;;;;;;;1.24;100.00;98957.13;5343155;33;34948;-86
2023/12/01 15:34:04;;;;;;;5.55;4.55;;;;;;;1.35;100.00;98954.22;5329918;33;33971;-87
2023/12/01 15:37:08;;;;;;;9.15;5.45;;;;;;;1.30;100.00;98968.94;5317637;33;33416;-87
2023/12/01 15:40:13;;;;;;;5.65;4.32;;;;;;;1.38;100.00;98960.22;5330139;33;33787;-87
2023/12/01 15:43:16;;;;;;;8.07;5.03;;;;;;;1.31;100.00;98942.25;5319055;33;34973;-87
2023/12/01 15:46:20;;;;;;;7.43;5.10;;;;;;;1.26;100.00;98935.75;5331241;33;34237;-87
2023/12/01 15:49:23;;;;;;;9.25;5.32;;;;;;;1.27;100.00;98945.38;5319652;33;33571;-87
2023/12/01 15:52:26;;;;;;;8.68;4.95;;;;;;;1.39;100.00;98927.41;5331314;33;33789;-87
2023/12/01 15:55:29;;;;;;;8.93;5.25;;;;;;;1.33;100.00;98942.09;5331427;33;34826;-86
2023/12/01 15:58:32;;;;;;;7.93;4.70;;;;;;;1.28;100.00;98897.47;5318651;33;34918;-87
2023/12/01 16:01:35;;;;;;;7.57;4.87;;;;;;;1.27;100.00;98921.50;5355087;33;33834;-86
2023/12/01 16:04:38;;;;;;;7.45;4.80;;;;;;;1.25;100.00;98912.88;5350910;33;34575;-87
2023/12/01 16:07:41;;;;;;;10.73;5.30;;;;;;;1.30;100.00;98932.63;5341994;33;33768;-87
2023/12/01 16:10:44;;;;;;;9.27;5.05;;;;;;;1.36;100.00;98908.16;5348738;33;34126;-87
2023/12/01 16:13:47;;;;;;;7.60;4.37;;;;;;;1.25;100.00;98913.69;5336552;33;33860;-87
2023/12/01 16:16:50;;;;;;;9.30;5.00;;;;;;;1.39;100.00;98920.28;5348910;33;33818;-87
2023/12/01 16:19:54;;;;;;;8.15;5.32;;;;;;;1.40;100.00;98911.31;5361684;33;33818;-86
2023/12/01 16:22:57;;;;;;;8.48;5.65;;;;;;;1.42;100.00;98912.00;5361832;33;33788;-87
2023/12/01 16:26:00;;;;;;;8.55;4.95;;;;;;;1.54;100.00;98920.53;5348730;33;33479;-87
2023/12/01 16:29:03;;;;;;;7.87;4.65;;;;;;;1.56;100.00;98910.63;5336558;33;34600;-87
2023/12/01 16:32:06;;;;;;;6.53;4.72;;;;;;;1.41;100.00;98931.56;5336359;33;33834;-87
2023/12/01 16:35:10;;;;;;;6.15;4.70;;;;;;;1.36;100.00;98915.28;5336665;33;34145;-87
2023/12/01 16:38:14;;;;;;;7.05;4.78;;;;;;;1.42;100.00;98900.56;5361228;33;33604;-87
2023/12/01 16:41:17;;;;;;;9.90;4.82;;;;;;;1.27;100.00;98908.25;5324594;33;34253;-87
2023/12/01 16:44:19;;;;;;;8.68;5.32;;;;;;;1.33;100.00;98887.25;5336182;33;33731;-87
2023/12/01 16:47:22;;;;;;;6.28;4.72;;;;;;;1.33;100.00;98907.62;5347963;33;33888;-87
2023/12/01 16:50:25;;;;;;;7.93;5.32;;;;;;;1.31;100.00;98909.59;5348446;33;33853;-87
2023/12/01 16:53:28;;;;;;;7.00;5.22;;;;;;;1.33;100.00;98899.69;5347939;33;33793;-87
